Roseburg Regional, OR

2:18 PM PDT on October 23, 2014 (GMT -0700)
Roseburg Regional | Change Station
CLOSE
Current Station
Airport
Location: Roseburg,
Elevation: 525 ft
Nearby Weather Stations

Elev 525 ft 43.24 °N, 123.36 °W | Updated 25 minutes ago

Overcast
Overcast
62 °F
Feels Like 62 °F
N
5
Wind Variable Wind from Variable

Today
High -- | Low -- °F
--% Chance of Precip.
Yesterday
High -- | Low -- °F
Precip. -- in
7:37 AM 6:17 PM
Waning Crescent, 0% visible
Pressure 29.97 in
Visibility 10.0 miles
Clouds Few 3700 ft
Scattered Clouds 4400 ft
Overcast 6000 ft
Dew Point 50 °F
Humidity 65%
Rainfall 0.36 in
Snow Depth Not available.
UV 1 out of 12
Pollen .30 out of 12
Air Quality Not available.
Flu Activity Sporadic
METAR KRBG 232053Z AUTO VRB04KT 10SM FEW037 SCT044 OVC060 17/10 A2997 RMK AO2 SLP148 T01670100 51012

More Conditions Fewer Conditions

Pressure 29.97 in
Visibility 10.0 miles
Clouds Few 3700 ft
Scattered Clouds 4400 ft
Overcast 6000 ft
Dew Point 50 °F
Humidity 65%
Rainfall 0.36 in
Snow Depth Not available.
UV 1 out of 12
Pollen .30 out of 12
Air Quality Not available.
Flu Activity Sporadic
METAR KRBG 232053Z AUTO VRB04KT 10SM FEW037 SCT044 OVC060 17/10 A2997 RMK AO2 SLP148 T01670100 51012

More Conditions Fewer Conditions

10-Day Weather Forecast

Almanac

Astronomy

Oct. 23, 2014 Rise Set
Actual Time 7:37 AM PDT 6:17 PM PDT
Civil Twilight 7:08 AM PDT 6:46 PM PDT
Nautical Twilight 6:34 AM PDT 7:19 PM PDT
Astronomical Twilight 6:01 AM PDT 7:52 PM PDT
Moon 7:21 AM PDT 6:22 PM PDT
Length of Visible Light 11h 38m
Length of Day
10h 40m
Tomorrow will be 2m 45s shorter.
Waning Crescent, 0% of the Moon is Illuminated
Today
Waning Crescent
Oct 23
New
Oct 30
First Quarter
Nov 6
Full
Nov 14
Last Quarter

Today's Extremes

State Highs State Lows

Community

WunderPhotos

Upload Photos

1,764,372 photos uploaded!

WunderBlogs® & News

Nearby

Snow Depth

Station Depth Elevation
Holland Meadows 0 in 4900 ft
Diamond Lake 0 in 5315 ft
Annie Springs 0 in 6020 ft
Salt Creek Falls 0 in 4000 ft
Cascade Summit 0 in 4880 ft

Earthquake Activity

City Distance Mag. Time & Date
Crescent City, California 136 miles 2.6 1:22 AM PDT
2014-10-21
Minimum magnitude displayed is 2.5.

Coastal Water Temperatures

Place Temperature
No Stations Reporting

Nearby Weather Stations